Terminal Aerodrome Forecast
Issued by NWS

Home | Current Version | Previous Version | Text Only | Print | Product List | Glossary On
Versions: 1 2 3 4 5 6 7 8 9 10 11 12 13 14 15
000
FTUS45 KLKN 302325
TAFWMC
TAF
KWMC 302325Z 0100/0124 03011KT P6SM SCT060 BKN090
     FM010400 01009KT P6SM FEW060 SCT090
     FM011600 04012G22KT P6SM SCT060 SCT100=

USA.gov is the U.S. government's official web portal to all federal, state and local government web resources and services.